Time;durP1;ratioP1;P1;durP2;ratioP2;P2;SDS_P1;SDS_P2;PMS_P1;PMS_P2;Temp;Humidity;BMP_temperature;BMP_pressure;BME280_temperature;BME280_humidity;BME280_pressure;Samples;Min_cycle;Max_cycle;Signal;HPM_P1;HPM_P2
2022/05/22 00:01:59;;;;;;;;;7.20;5.80;;;;;18.40;100.00;101387.38;6308590;22;44848;-84
2022/05/22 00:04:25;;;;;;;;;8.75;6.25;;;;;18.40;100.00;101392.75;6306723;22;46061;-83
2022/05/22 00:06:51;;;;;;;;;5.60;5.60;;;;;18.37;100.00;101396.59;6305786;22;44704;-84
2022/05/22 00:09:17;;;;;;;;;5.00;5.00;;;;;18.30;100.00;101397.25;6309367;22;44752;-83
2022/05/22 00:11:43;;;;;;;;;6.00;6.00;;;;;18.24;100.00;101383.38;6315229;22;45257;-82
2022/05/22 00:14:11;;;;;;;;;5.60;4.00;;;;;18.19;100.00;101390.16;6307626;22;45096;-84
2022/05/22 00:16:40;;;;;;;;;6.20;5.00;;;;;18.12;100.00;101375.53;6313084;22;44756;-84
2022/05/22 00:19:15;;;;;;;;;5.20;4.40;;;;;18.04;100.00;101372.69;6316968;22;44786;-84
2022/05/22 00:21:41;;;;;;;;;6.20;5.00;;;;;17.98;100.00;101377.59;6312903;22;45310;-83
2022/05/22 00:24:08;;;;;;;;;6.50;5.50;;;;;17.98;100.00;101380.28;6309289;22;45009;-82
2022/05/22 00:26:34;;;;;;;;;5.00;5.00;;;;;17.97;100.00;101370.53;6280843;22;45008;-83
2022/05/22 00:29:00;;;;;;;;;5.00;5.00;;;;;17.97;100.00;101365.16;6309062;22;45295;-84
2022/05/22 00:31:26;;;;;;;;;8.25;5.50;;;;;17.98;100.00;101368.69;6306678;22;45218;-84
2022/05/22 00:33:53;;;;;;;;;5.00;3.40;;;;;17.98;100.00;101369.53;6310479;22;45275;-90
2022/05/22 00:36:18;;;;;;;;;4.20;4.00;;;;;17.97;100.00;101375.06;6313606;22;44646;-89
2022/05/22 00:38:44;;;;;;;;;5.00;5.00;;;;;17.94;100.00;101367.28;6317381;22;45315;-88
2022/05/22 00:41:11;;;;;;;;;5.50;4.25;;;;;17.92;100.00;101363.84;6290581;22;44908;-88
2022/05/22 00:43:42;;;;;;;;;3.80;3.80;;;;;17.88;100.00;101362.41;6283514;22;46759;-89
2022/05/22 00:46:13;;;;;;;;;5.20;5.20;;;;;17.89;100.00;101365.00;6312909;22;45198;-89
2022/05/22 00:48:43;;;;;;;;;5.80;5.80;;;;;17.91;100.00;101356.78;6312965;22;44721;-88
2022/05/22 00:51:17;;;;;;;;;5.80;5.60;;;;;17.96;100.00;101354.53;6315557;22;44763;-89
2022/05/22 00:53:48;;;;;;;;;4.00;4.00;;;;;17.95;100.00;101353.69;6281619;22;45400;-88
2022/05/22 00:56:22;;;;;;;;;4.00;4.00;;;;;17.86;100.00;101356.34;6282910;22;45248;-87
2022/05/22 00:58:54;;;;;;;;;7.40;4.80;;;;;17.80;100.00;101351.50;6310271;22;45242;-88
2022/05/22 01:01:20;;;;;;;;;6.20;4.60;;;;;17.78;100.00;101343.56;6283268;22;45265;-87
2022/05/22 01:03:45;;;;;;;;;3.00;3.00;;;;;17.74;100.00;101336.75;6311186;22;45085;-88
2022/05/22 01:06:20;;;;;;;;;7.25;6.50;;;;;17.73;100.00;101332.34;6310912;22;45508;-87
2022/05/22 01:08:49;;;;;;;;;7.00;5.40;;;;;17.70;100.00;101325.41;6288282;22;45297;-87
2022/05/22 01:11:23;;;;;;;;;6.20;6.20;;;;;17.69;100.00;101333.56;6311012;22;44674;-88
2022/05/22 01:13:58;;;;;;;;;6.60;5.00;;;;;17.66;100.00;101331.19;6318507;22;45253;-88
2022/05/22 01:16:25;;;;;;;;;5.20;4.80;;;;;17.63;100.00;101324.22;6289071;22;44636;-87
2022/05/22 01:18:55;;;;;;;;;6.20;6.20;;;;;17.56;100.00;101312.31;6287705;22;44690;-88
2022/05/22 01:21:31;;;;;;;;;5.20;5.20;;;;;17.52;100.00;101310.03;6324397;22;44884;-86
2022/05/22 01:23:57;;;;;;;;;7.80;6.40;;;;;17.51;100.00;101309.19;6321093;22;45432;-86
2022/05/22 01:26:25;;;;;;;;;6.75;6.75;;;;;17.48;100.00;101309.44;6298073;22;44953;-86
2022/05/22 01:28:51;;;;;;;;;7.80;5.80;;;;;17.40;100.00;101303.88;6298922;22;44607;-88
2022/05/22 01:31:17;;;;;;;;;6.50;6.50;;;;;17.39;100.00;101313.78;6294834;22;44931;-88
2022/05/22 01:33:43;;;;;;;;;5.60;5.60;;;;;17.39;100.00;101315.59;6307485;22;45419;-88
2022/05/22 01:36:10;;;;;;;;;6.25;6.25;;;;;17.37;100.00;101306.84;6282852;22;45422;-88
2022/05/22 01:38:37;;;;;;;;;6.80;6.20;;;;;17.34;100.00;101304.41;6287555;22;44768;-87
2022/05/22 01:41:03;;;;;;;;;6.20;5.20;;;;;17.32;100.00;101304.56;6284670;22;44832;-88
2022/05/22 01:43:28;;;;;;;;;7.40;4.80;;;;;17.31;100.00;101307.34;6313854;22;45221;-88
2022/05/22 01:45:57;;;;;;;;;7.25;7.25;;;;;17.31;100.00;101302.88;6288523;22;44696;-88
2022/05/22 01:48:24;;;;;;;;;9.00;4.00;;;;;17.28;100.00;101307.63;6257668;22;1367024;-89
2022/05/22 01:50:50;;;;;;;;;7.80;5.80;;;;;17.22;100.00;101306.34;6320349;22;44809;-88
2022/05/22 01:53:18;;;;;;;;;6.25;4.25;;;;;17.20;100.00;101306.44;6320466;22;44998;-88
2022/05/22 01:55:45;;;;;;;;;4.80;4.80;;;;;17.16;100.00;101307.72;6287589;22;44650;-88
2022/05/22 01:58:10;;;;;;;;;5.00;5.00;;;;;17.14;100.00;101301.59;6287507;22;44612;-88
2022/05/22 02:00:36;;;;;;;;;11.50;6.25;;;;;17.08;100.00;101296.78;6316970;22;44841;-90
2022/05/22 02:03:03;;;;;;;;;7.60;4.20;;;;;17.07;100.00;101304.97;6318138;22;45022;-87
2022/05/22 02:05:28;;;;;;;;;6.40;5.40;;;;;17.06;100.00;101297.88;6314410;22;44996;-88
2022/05/22 02:10:40;;;;;;;;;5.80;5.20;;;;;16.98;100.00;101297.69;6311912;22;45376;-87
2022/05/22 02:13:06;;;;;;;;;3.20;3.20;;;;;16.97;100.00;101294.16;6285089;22;46741;-88
2022/05/22 02:15:32;;;;;;;;;3.00;3.00;;;;;16.96;100.00;101295.13;6321336;22;45412;-88
2022/05/22 02:17:57;;;;;;;;;10.75;7.50;;;;;16.93;100.00;101288.19;6326909;22;44645;-89
2022/05/22 02:20:23;;;;;;;;;5.00;5.00;;;;;16.92;100.00;101302.59;6318697;22;44867;-88
2022/05/22 02:22:54;;;;;;;;;5.00;5.00;;;;;16.90;100.00;101296.50;6321427;22;44959;-88
2022/05/22 02:25:25;;;;;;;;;5.00;5.00;;;;;16.89;100.00;101293.94;6319514;22;45219;-88
2022/05/22 02:27:52;;;;;;;;;4.80;4.80;;;;;16.90;100.00;101295.66;6324271;22;45100;-89
2022/05/22 02:30:21;;;;;;;;;7.20;5.20;;;;;16.89;100.00;101293.94;6286566;22;45239;-89
2022/05/22 02:32:47;;;;;;;;;7.20;5.80;;;;;16.87;100.00;101286.00;6280780;22;45327;-89
2022/05/22 02:35:18;;;;;;;;;5.60;4.00;;;;;16.86;100.00;101287.00;6283990;22;45289;-87
2022/05/22 02:37:49;;;;;;;;;4.40;4.40;;;;;16.85;100.00;101289.81;6321235;22;44561;-89
2022/05/22 02:40:17;;;;;;;;;5.80;4.80;;;;;16.82;100.00;101292.75;6316346;22;45212;-87
2022/05/22 02:42:46;;;;;;;;;7.00;4.00;;;;;16.80;100.00;101294.72;6319728;22;45054;-88
2022/05/22 02:45:13;;;;;;;;;4.00;4.00;;;;;16.79;100.00;101293.88;6329996;22;44646;-89
2022/05/22 02:47:38;;;;;;;;;2.00;2.00;;;;;16.74;100.00;101301.47;6318947;22;44796;-87
2022/05/22 02:50:05;;;;;;;;;7.75;5.25;;;;;16.74;100.00;101314.03;6314112;22;45147;-87
2022/05/22 02:52:30;;;;;;;;;6.40;4.00;;;;;16.72;100.00;101318.66;6310327;22;45104;-87
2022/05/22 02:54:57;;;;;;;;;5.50;5.00;;;;;16.73;100.00;101318.56;6312636;22;44717;-87
2022/05/22 02:57:23;;;;;;;;;4.60;4.60;;;;;16.70;100.00;101316.94;6314779;22;44615;-90
2022/05/22 02:59:49;;;;;;;;;7.25;4.50;;;;;16.69;100.00;101319.75;6312179;22;44847;-88
2022/05/22 03:02:15;;;;;;;;;7.00;4.80;;;;;16.67;100.00;101317.16;6310061;22;45059;-88
2022/05/22 03:04:42;;;;;;;;;4.75;4.75;;;;;16.65;100.00;101321.81;6282995;22;45468;-89
2022/05/22 03:07:14;;;;;;;;;4.00;4.00;;;;;16.65;100.00;101320.97;6298442;22;44693;-89
2022/05/22 03:09:41;;;;;;;;;6.20;4.00;;;;;16.62;100.00;101319.38;6314689;22;45355;-89
2022/05/22 03:12:08;;;;;;;;;5.80;4.20;;;;;16.62;100.00;101310.50;6281337;22;46083;-88
2022/05/22 03:14:33;;;;;;;;;5.00;5.00;;;;;16.62;100.00;101323.91;6309998;22;44662;-89
2022/05/22 03:16:58;;;;;;;;;5.00;4.00;;;;;16.59;100.00;101308.09;6309242;22;45241;-88
2022/05/22 03:19:24;;;;;;;;;9.50;5.00;;;;;16.58;100.00;101309.88;6312596;22;45260;-89
2022/05/22 03:21:50;;;;;;;;;4.75;4.75;;;;;16.57;100.00;101301.97;6315641;22;45302;-88
2022/05/22 03:24:15;;;;;;;;;4.00;4.00;;;;;16.55;100.00;101291.38;6316834;22;44799;-87
2022/05/22 03:26:41;;;;;;;;;5.75;5.75;;;;;16.54;100.00;101283.47;6318152;22;45217;-86
2022/05/22 03:29:07;;;;;;;;;4.75;4.75;;;;;16.55;100.00;101280.66;6316926;22;45154;-88
2022/05/22 03:31:32;;;;;;;;;6.25;5.00;;;;;16.57;100.00;101272.47;6285191;22;45452;-88
2022/05/22 03:33:57;;;;;;;;;6.50;5.00;;;;;16.59;100.00;101270.53;6312527;22;44615;-88
2022/05/22 03:36:23;;;;;;;;;4.75;4.50;;;;;16.60;100.00;101273.06;6318011;22;44873;-90
2022/05/22 03:38:51;;;;;;;;;7.25;4.00;;;;;16.63;100.00;101271.94;6314114;22;45483;-89
2022/05/22 03:41:16;;;;;;;;;5.00;4.00;;;;;16.65;100.00;101265.47;6314075;22;46860;-90
2022/05/22 03:43:42;;;;;;;;;4.00;4.00;;;;;16.65;100.00;101264.63;6318753;22;44767;-90
2022/05/22 03:46:07;;;;;;;;;5.00;5.00;;;;;16.67;100.00;101266.19;6300081;22;44731;-90
2022/05/22 03:48:34;;;;;;;;;4.50;4.50;;;;;16.65;100.00;101262.81;6333134;22;44835;-87
2022/05/22 03:50:59;;;;;;;;;7.80;4.40;;;;;16.66;100.00;101263.66;6332543;22;45192;-85
2022/05/22 03:53:25;;;;;;;;;5.00;5.00;;;;;16.64;100.00;101262.94;6334066;22;44600;-85
2022/05/22 03:55:50;;;;;;;;;5.00;5.00;;;;;16.63;100.00;101266.59;6330635;22;44629;-86
2022/05/22 03:58:19;;;;;;;;;5.75;5.75;;;;;16.60;100.00;101265.03;6333713;22;44823;-85
2022/05/22 04:00:45;;;;;;;;;1.00;1.00;;;;;16.60;100.00;101262.34;6307402;22;46851;-87
2022/05/22 04:03:11;;;;;;;;;6.75;5.25;;;;;16.60;100.00;101256.13;6334237;22;44633;-87
2022/05/22 04:05:38;;;;;;;;;7.50;6.00;;;;;16.58;100.00;101258.91;6333314;22;44679;-87
2022/05/22 04:08:05;;;;;;;;;5.20;5.20;;;;;16.59;100.00;101252.59;6305826;22;45242;-88
2022/05/22 04:10:31;;;;;;;;;4.40;3.00;;;;;16.59;100.00;101244.56;6330757;22;45107;-87
2022/05/22 04:12:56;;;;;;;;;4.50;4.50;;;;;16.61;100.00;101237.22;6299491;22;44709;-89
2022/05/22 04:15:22;;;;;;;;;10.00;6.50;;;;;16.66;100.00;101239.50;6313323;22;45067;-89
2022/05/22 04:17:49;;;;;;;;;5.60;5.20;;;;;16.68;100.00;101225.00;6319140;22;44763;-88
2022/05/22 04:20:17;;;;;;;;;3.60;3.60;;;;;16.70;100.00;101225.69;6294301;22;45152;-89
2022/05/22 04:25:27;;;;;;;;;5.40;4.40;;;;;16.74;100.00;101242.44;6322678;22;44762;-88
2022/05/22 04:27:52;;;;;;;;;4.25;3.00;;;;;16.81;100.00;101240.06;6322756;22;44843;-88
2022/05/22 04:30:21;;;;;;;;;5.75;4.50;;;;;16.84;100.00;101240.66;6294722;22;46829;-88
2022/05/22 04:32:49;;;;;;;;;4.40;4.20;;;;;16.91;100.00;101235.63;6298612;22;44779;-90
2022/05/22 04:35:15;;;;;;;;;5.00;3.40;;;;;16.98;100.00;101236.81;6323879;22;44764;-89
2022/05/22 04:37:41;;;;;;;;;4.00;4.00;;;;;17.04;100.00;101236.28;6321087;22;44816;-88
2022/05/22 04:40:09;;;;;;;;;5.40;5.40;;;;;17.12;100.00;101246.34;6313089;22;45255;-88
2022/05/22 04:42:37;;;;;;;;;5.00;5.00;;;;;17.19;100.00;101244.81;6311739;22;45097;-89
2022/05/22 04:45:05;;;;;;;;;2.40;2.00;;;;;17.21;100.00;101249.09;6318019;22;45088;-88
2022/05/22 04:47:30;;;;;;;;;5.40;5.40;;;;;17.26;100.00;101242.44;6316017;22;44744;-89
2022/05/22 04:49:56;;;;;;;;;4.00;4.00;;;;;17.29;100.00;101251.09;6309211;22;45931;-89
2022/05/22 04:52:24;;;;;;;;;4.00;4.00;;;;;17.33;100.00;101249.00;6312164;22;45328;-90
2022/05/22 04:54:52;;;;;;;;;4.40;2.60;;;;;17.36;100.00;101259.50;6283924;22;44639;-90
2022/05/22 04:57:18;;;;;;;;;3.40;3.40;;;;;17.40;100.00;101256.38;6281243;22;44916;-90
2022/05/22 04:59:43;;;;;;;;;2.00;2.00;;;;;17.47;100.00;101262.06;6309573;22;45096;-90
2022/05/22 05:02:10;;;;;;;;;5.75;4.25;;;;;17.53;100.00;101255.31;6282997;22;44544;-89
2022/05/22 05:04:35;;;;;;;;;6.20;4.00;;;;;17.59;100.00;101268.19;6289035;22;44814;-90
2022/05/22 05:07:06;;;;;;;;;4.00;3.25;;;;;17.65;100.00;101262.31;6327493;22;44868;-90
2022/05/22 05:09:31;;;;;;;;;3.40;3.40;;;;;17.75;100.00;101257.00;6322462;22;45154;-89
2022/05/22 05:12:00;;;;;;;;;7.00;5.00;;;;;17.81;100.00;101257.28;6329177;22;44571;-89
2022/05/22 05:14:26;;;;;;;;;5.20;5.00;;;;;17.89;100.00;101256.59;6311621;22;44733;-88
2022/05/22 05:16:52;;;;;;;;;5.40;5.00;;;;;18.03;100.00;101250.81;6308777;22;45417;-88
2022/05/22 05:19:25;;;;;;;;;6.50;3.50;;;;;18.12;100.00;101255.38;6311779;22;44953;-89
2022/05/22 05:21:55;;;;;;;;;4.20;4.20;;;;;18.21;100.00;101256.38;6278031;22;44714;-86
2022/05/22 05:24:21;;;;;;;;;4.60;4.00;;;;;18.31;100.00;101256.41;6306176;22;44627;-89
2022/05/22 05:26:50;;;;;;;;;4.50;3.75;;;;;18.40;100.00;101252.88;6306837;22;44722;-88
2022/05/22 05:29:16;;;;;;;;;2.80;2.80;;;;;18.48;100.00;101250.34;6331029;22;45189;-87
2022/05/22 05:31:41;;;;;;;;;4.00;4.00;;;;;18.57;100.00;101254.88;6295682;22;44610;-88
2022/05/22 05:34:08;;;;;;;;;6.50;4.50;;;;;18.65;100.00;101251.44;6323183;22;45185;-88
2022/05/22 05:36:36;;;;;;;;;3.40;3.40;;;;;18.72;100.00;101264.22;6298876;22;44797;-90
2022/05/22 05:39:03;;;;;;;;;5.00;4.00;;;;;18.79;100.00;101263.66;6332221;22;45050;-89
2022/05/22 05:41:28;;;;;;;;;2.00;0.00;;;;;18.86;100.00;101264.81;6326966;22;44590;-88
2022/05/22 05:43:55;;;;;;;;;4.25;3.00;;;;;18.95;100.00;101258.53;6326578;22;44590;-88
2022/05/22 05:46:20;;;;;;;;;4.00;4.00;;;;;19.07;100.00;101260.06;6321495;22;45277;-88
2022/05/22 05:48:47;;;;;;;;;4.25;4.00;;;;;19.22;100.00;101265.84;6317257;22;45249;-91
2022/05/22 05:51:16;;;;;;;;;3.00;2.40;;;;;19.34;100.00;101264.69;6319745;22;44740;-91
2022/05/22 05:53:45;;;;;;;;;2.00;2.00;;;;;19.46;100.00;101265.34;6292894;22;44556;-91
2022/05/22 05:59:33;;;;;;;;;3.00;3.00;;;;;19.81;100.00;101253.88;6318578;22;44860;-91
2022/05/22 06:02:01;;;;;;;;;2.20;2.20;;;;;19.95;100.00;101244.44;6319452;22;44645;-91
2022/05/22 06:04:26;;;;;;;;;3.00;3.00;;;;;20.08;100.00;101244.06;6319698;22;44742;-89
2022/05/22 06:06:53;;;;;;;;;2.00;2.00;;;;;20.23;100.00;101242.53;6321336;22;44958;-91
2022/05/22 06:09:18;;;;;;;;;3.00;2.40;;;;;20.41;100.00;101232.59;6294358;22;46850;-90
2022/05/22 06:11:44;;;;;;;;;3.00;3.00;;;;;20.51;100.00;101227.16;6272947;22;44698;-88
2022/05/22 06:14:10;;;;;;;;;3.75;3.00;;;;;20.63;100.00;101228.59;6294371;22;44603;-91
2022/05/22 06:16:36;;;;;;;;;3.20;3.00;;;;;20.71;100.00;101225.97;6302153;22;44909;-88
2022/05/22 06:19:07;;;;;;;;;3.00;3.00;;;;;20.87;100.00;101221.69;6300387;22;45175;-92
2022/05/22 06:21:35;;;;;;;;;3.40;3.40;;;;;20.95;100.00;101213.66;6323491;22;45439;-90
2022/05/22 06:24:04;;;;;;;;;6.40;4.00;;;;;21.02;100.00;101193.09;6301402;22;44509;-90
2022/05/22 06:26:30;;;;;;;;;2.00;2.00;;;;;21.20;100.00;101195.75;6333924;22;44892;-88
2022/05/22 06:28:55;;;;;;;;;2.50;2.00;;;;;21.29;100.00;101190.22;6300052;22;44872;-88
2022/05/22 06:31:24;;;;;;;;;2.50;1.75;;;;;21.47;100.00;101200.16;6299887;22;44822;-88
2022/05/22 06:33:49;;;;;;;;;3.60;2.40;;;;;21.59;100.00;101189.88;6296918;22;44651;-88
2022/05/22 06:36:16;;;;;;;;;8.50;4.00;;;;;21.52;100.00;101179.72;6296549;22;44937;-87
2022/05/22 06:41:26;;;;;;;;;3.00;3.00;;;;;21.16;100.00;101167.34;6322872;22;44606;-91
2022/05/22 06:43:53;;;;;;;;;4.00;4.00;;;;;21.09;100.00;101153.63;6310313;22;44737;-83
2022/05/22 06:46:33;;;;;;;;;2.60;2.60;;;;;20.87;100.00;101146.91;6306753;22;45420;-84
2022/05/22 06:48:59;;;;;;;;;4.00;2.80;;;;;20.88;100.00;101148.59;6305280;22;45355;-85
2022/05/22 06:51:25;;;;;;;;;0.60;0.60;;;;;20.96;100.00;101151.38;6306174;22;44651;-85
2022/05/22 06:53:50;;;;;;;;;4.00;2.25;;;;;21.12;100.00;101165.97;6306291;22;44785;-83
2022/05/22 06:56:16;;;;;;;;;4.00;2.00;;;;;21.28;100.00;101166.06;6306976;22;45520;-84
2022/05/22 06:58:41;;;;;;;;;3.00;3.00;;;;;21.46;100.00;101155.16;6306126;22;45115;-84
2022/05/22 07:01:06;;;;;;;;;3.75;3.75;;;;;21.37;100.00;101154.31;6308935;22;45194;-83
2022/05/22 07:03:35;;;;;;;;;2.00;2.00;;;;;21.49;100.00;101162.97;6308765;22;45124;-84
2022/05/22 07:06:00;;;;;;;;;3.20;2.00;;;;;21.64;100.00;101161.31;6316983;22;45481;-84
2022/05/22 07:08:27;;;;;;;;;3.00;3.00;;;;;21.91;100.00;101168.34;6321562;22;44947;-85
2022/05/22 07:13:36;;;;;;;;;3.00;3.00;;;;;22.45;100.00;101173.31;6327496;22;45221;-85
2022/05/22 07:16:05;;;;;;;;;3.00;3.00;;;;;22.51;100.00;101164.50;6318957;22;44919;-84
2022/05/22 07:18:30;;;;;;;;;2.00;2.00;;;;;22.48;100.00;101140.47;6314222;22;45243;-85
2022/05/22 07:20:56;;;;;;;;;5.00;3.00;;;;;22.46;100.00;101142.50;6310684;22;44709;-84
2022/05/22 07:23:22;;;;;;;;;2.75;2.50;;;;;22.43;100.00;101148.25;6307636;22;44784;-84
2022/05/22 07:25:47;;;;;;;;;2.00;2.00;;;;;22.37;100.00;101152.50;6309431;22;44788;-83
2022/05/22 07:28:13;;;;;;;;;2.50;2.50;;;;;22.38;100.00;101147.91;6307797;22;45171;-85
2022/05/22 07:30:39;;;;;;;;;3.00;2.00;;;;;22.35;100.00;101127.47;6306940;22;44745;-86
2022/05/22 07:33:04;;;;;;;;;1.50;1.50;;;;;22.30;100.00;101111.72;6309841;22;45188;-85
2022/05/22 07:35:30;;;;;;;;;2.25;2.25;;;;;22.22;100.00;101129.81;6313486;22;44725;-83
2022/05/22 07:37:55;;;;;;;;;2.50;2.50;;;;;22.19;100.00;101128.31;6287665;22;45062;-85
2022/05/22 07:40:20;;;;;;;;;2.50;2.00;;;;;22.21;100.00;101131.69;6285134;22;44727;-83
2022/05/22 07:42:46;;;;;;;;;1.50;1.50;;;;;22.31;100.00;101134.22;6311844;22;45436;-83
2022/05/22 07:45:14;;;;;;;;;2.00;2.00;;;;;22.46;100.00;101140.66;6312394;22;45179;-84
2022/05/22 07:47:39;;;;;;;;;2.80;2.20;;;;;22.60;100.00;101136.41;6283552;22;46703;-84
2022/05/22 07:50:20;;;;;;;;;1.50;1.00;;;;;22.58;100.00;101149.28;6280962;22;45308;-87
2022/05/22 07:52:48;;;;;;;;;3.00;3.00;;;;;22.61;100.00;101153.50;6306937;22;44693;-87
2022/05/22 07:55:14;;;;;;;;;0.40;0.00;;;;;22.57;100.00;101142.16;6306696;22;44744;-85
2022/05/22 07:57:43;;;;;;;;;3.20;2.80;;;;;22.74;100.00;101124.88;6306344;22;45215;-86
2022/05/22 08:00:10;;;;;;;;;4.20;2.00;;;;;22.97;99.37;101105.22;6305271;22;44767;-84
2022/05/22 08:02:36;;;;;;;;;2.00;2.00;;;;;23.09;98.40;101098.38;6306104;22;44632;-85
2022/05/22 08:05:01;;;;;;;;;3.75;2.00;;;;;22.98;99.24;101121.28;6312394;22;45252;-83
2022/05/22 08:07:27;;;;;;;;;2.00;2.00;;;;;23.07;98.89;101111.28;6308816;22;44805;-85
2022/05/22 08:09:52;;;;;;;;;3.00;2.00;;;;;23.01;99.15;101106.53;6278959;22;44681;-84
2022/05/22 08:12:18;;;;;;;;;3.00;3.00;;;;;23.24;97.95;101104.75;6306380;22;44857;-84
2022/05/22 08:14:46;;;;;;;;;1.50;1.50;;;;;23.49;97.61;101104.63;6306234;22;44640;-84
2022/05/22 08:17:12;;;;;;;;;3.00;3.00;;;;;23.81;97.91;101093.59;6309940;22;45422;-84
2022/05/22 08:19:37;;;;;;;;;4.00;3.00;;;;;23.78;96.88;101080.38;6312222;22;44760;-84
2022/05/22 08:22:03;;;;;;;;;4.75;2.75;;;;;23.73;96.73;101077.38;6308142;22;45155;-84
2022/05/22 08:24:29;;;;;;;;;2.20;2.20;;;;;23.87;95.82;101075.75;6307083;22;44939;-86
2022/05/22 08:26:55;;;;;;;;;3.75;3.00;;;;;24.09;95.50;101065.91;6308068;22;45131;-83
2022/05/22 08:29:20;;;;;;;;;2.00;2.00;;;;;24.21;92.96;101048.13;6307313;22;44725;-84
2022/05/22 08:31:46;;;;;;;;;3.50;1.75;;;;;24.42;92.77;101042.03;6308909;22;45396;-84
2022/05/22 08:34:13;;;;;;;;;2.25;2.25;;;;;24.58;92.91;101043.72;6281405;22;45282;-85
2022/05/22 08:36:39;;;;;;;;;1.40;1.40;;;;;24.74;92.92;101065.25;6309147;22;45296;-84
2022/05/22 08:39:05;;;;;;;;;4.00;4.00;;;;;24.86;89.09;101068.38;6307588;22;44709;-85
2022/05/22 08:41:40;;;;;;;;;2.40;2.40;;;;;24.96;87.03;101065.38;6309079;22;45431;-85
2022/05/22 08:44:12;;;;;;;;;4.80;4.80;;;;;25.14;87.38;101065.81;6310681;22;44775;-86
2022/05/22 08:46:52;;;;;;;;;2.80;2.00;;;;;25.35;86.51;101071.31;6307268;22;45486;-84
2022/05/22 08:49:32;;;;;;;;;3.20;2.60;;;;;25.60;85.38;101068.25;6314370;22;44655;-84
2022/05/22 08:52:09;;;;;;;;;1.20;1.20;;;;;25.75;82.86;101057.31;6314004;22;45352;-84
2022/05/22 08:54:41;;;;;;;;;1.60;1.60;;;;;25.98;83.33;101059.88;6312251;22;45313;-85
2022/05/22 09:00:04;;;;;;;;;2.00;2.00;;;;;26.32;82.22;101062.66;6312908;22;44656;-83
2022/05/22 09:02:43;;;;;;;;;2.80;2.80;;;;;26.46;80.75;101069.09;6307706;22;44793;-84
2022/05/22 09:05:15;;;;;;;;;2.00;2.00;;;;;26.64;78.93;101074.88;6310426;22;44786;-84
2022/05/22 09:08:06;;;;;;;;;4.40;3.00;;;;;26.78;78.40;101061.31;6309502;22;45269;-83
2022/05/22 09:11:05;;;;;;;;;4.00;2.00;;;;;26.74;77.48;101049.09;6307389;22;44738;-84
2022/05/22 09:13:45;;;;;;;;;4.60;3.00;;;;;26.77;77.33;101048.72;6308871;22;44732;-85
2022/05/22 09:16:43;;;;;;;;;3.00;3.00;;;;;26.91;77.77;101048.59;6308262;22;44735;-85
2022/05/22 09:19:11;;;;;;;;;2.00;2.00;;;;;26.83;76.40;101050.63;6153431;23;45367;-85
2022/05/22 09:22:28;;;;;;;;;2.80;2.40;;;;;26.78;73.66;101043.06;6154475;23;44738;-84
2022/05/22 09:25:44;;;;;;;;;3.20;2.20;;;;;26.84;74.12;101035.97;6092496;23;45285;-84
2022/05/22 09:28:33;;;;;;;;;1.20;1.20;;;;;26.95;76.57;101029.94;6097758;23;45416;-86
2022/05/22 09:31:34;;;;;;;;;2.80;2.20;;;;;26.77;72.32;101018.72;6101437;23;45095;-83
2022/05/22 09:34:06;;;;;;;;;4.40;2.80;;;;;26.64;73.79;101023.09;6095600;23;44774;-86
2022/05/22 09:37:05;;;;;;;;;6.00;4.60;;;;;26.64;75.69;101014.03;6073113;23;44687;-83
2022/05/22 09:39:39;;;;;;;;;4.40;3.20;;;;;26.65;74.46;101024.75;6094906;23;44808;-84
2022/05/22 09:42:23;;;;;;;;;1.00;1.00;;;;;26.51;72.36;101019.44;6069335;23;45461;-84
2022/05/22 09:45:27;;;;;;;;;2.40;2.40;;;;;26.28;69.00;101011.50;6075190;23;44785;-83
2022/05/22 09:48:20;;;;;;;;;1.20;0.00;;;;;26.06;69.16;100999.78;5990232;23;44826;-84
2022/05/22 09:51:10;;;;;;;;;2.00;1.40;;;;;25.76;74.93;100997.25;5992372;23;44854;-85
2022/05/22 09:53:38;;;;;;;;;2.40;2.40;;;;;25.45;73.24;100996.72;5967107;23;45312;-83
2022/05/22 09:56:36;;;;;;;;;3.40;1.60;;;;;25.27;74.65;101000.72;6101566;23;44763;-84
2022/05/22 09:59:21;;;;;;;;;2.40;2.40;;;;;25.12;74.96;100989.03;6138346;23;44680;-84
2022/05/22 10:01:53;;;;;;;;;2.00;2.00;;;;;24.99;75.13;100983.41;6160067;23;44838;-84
2022/05/22 10:04:51;;;;;;;;;4.00;3.00;;;;;24.85;75.85;100969.69;6154611;23;45198;-85
2022/05/22 10:07:42;;;;;;;;;2.00;2.00;;;;;24.78;75.58;100948.88;6036980;23;45146;-83
2022/05/22 10:10:41;;;;;;;;;4.20;2.00;;;;;24.75;77.07;100941.94;6036469;23;44805;-83
2022/05/22 10:13:34;;;;;;;;;2.40;2.40;;;;;24.65;77.50;100935.97;6037078;23;45304;-84
2022/05/22 10:16:16;;;;;;;;;2.40;2.00;;;;;24.54;78.98;100928.31;6041181;23;45161;-83
2022/05/22 10:19:26;;;;;;;;;2.80;2.80;;;;;24.44;80.83;100919.63;6040411;23;44820;-83
2022/05/22 10:22:21;;;;;;;;;2.00;2.00;;;;;24.46;81.89;100933.84;6036685;23;45166;-84
2022/05/22 10:25:20;;;;;;;;;2.00;2.00;;;;;24.51;83.25;100934.94;6095497;23;44792;-86
2022/05/22 10:28:01;;;;;;;;;2.40;2.40;;;;;24.62;84.11;100917.34;6162738;23;44943;-86
2022/05/22 10:30:38;;;;;;;;;3.40;2.00;;;;;24.72;83.58;100923.31;6157733;23;44740;-84
2022/05/22 10:33:13;;;;;;;;;2.80;2.20;;;;;24.72;84.51;100928.75;6155026;23;44661;-84
2022/05/22 10:36:10;;;;;;;;;3.40;3.00;;;;;24.63;85.15;100910.88;6152331;23;44942;-83
2022/05/22 10:38:45;;;;;;;;;2.80;2.80;;;;;24.52;86.61;100890.47;6152668;23;45098;-84
2022/05/22 10:44:17;;;;;;;;;1.40;1.40;;;;;24.08;89.00;100864.19;6226181;22;44742;-84
2022/05/22 10:46:49;;;;;;;;;2.20;2.20;;;;;23.87;90.49;100874.09;6312142;22;44804;-84
2022/05/22 10:49:15;;;;;;;;;2.40;2.40;;;;;23.73;92.59;100863.03;6325610;22;45016;-90
2022/05/22 10:51:52;;;;;;;;;5.20;4.80;;;;;23.66;94.14;100858.56;6317263;22;44693;-90
2022/05/22 10:54:25;;;;;;;;;9.00;6.80;;;;;23.59;95.78;100847.53;6318136;22;44649;-90
2022/05/22 10:56:51;;;;;;;;;4.80;3.00;;;;;23.51;97.32;100843.06;6286662;22;44755;-89
2022/05/22 10:59:22;;;;;;;;;4.00;2.25;;;;;23.40;97.18;100832.63;6288348;22;45306;-88
2022/05/22 11:02:03;;;;;;;;;3.00;3.00;;;;;23.30;98.98;100813.09;6314045;22;45174;-86
2022/05/22 11:04:40;;;;;;;;;3.00;3.00;;;;;23.15;98.48;100807.63;6292820;22;44804;-86
2022/05/22 11:07:07;;;;;;;;;3.00;3.00;;;;;22.86;100.00;100829.19;6316946;22;44824;-88
2022/05/22 11:09:45;;;;;;;;;4.00;4.00;;;;;22.71;100.00;100832.66;6322206;22;45045;-88
2022/05/22 11:12:18;;;;;;;;;2.40;2.40;;;;;22.51;100.00;100835.00;6323770;22;44654;-87
2022/05/22 11:14:44;;;;;;;;;3.00;3.00;;;;;22.38;100.00;100844.72;6322146;22;44658;-87
2022/05/22 11:17:21;;;;;;;;;3.00;3.00;;;;;22.29;100.00;100855.59;6323162;22;44730;-88
2022/05/22 11:19:54;;;;;;;;;4.20;4.20;;;;;22.29;100.00;100858.31;6319793;22;45193;-86
2022/05/22 11:23:00;;;;;;;;;7.20;5.60;;;;;22.32;100.00;100868.75;6293152;22;44899;-87
2022/05/22 11:25:27;;;;;;;;;11.60;9.60;;;;;22.45;100.00;100867.38;6290830;22;44710;-87
2022/05/22 11:28:17;;;;;;;;;19.40;19.20;;;;;22.50;100.00;100854.13;6314724;22;45363;-85
2022/05/22 11:30:54;;;;;;;;;21.20;17.60;;;;;22.54;100.00;100848.19;6313793;22;45523;-88
2022/05/22 11:33:49;;;;;;;;;27.00;25.00;;;;;22.53;100.00;100845.63;6312383;22;44747;-88
2022/05/22 11:36:48;;;;;;;;;76.00;55.33;;;;;22.63;100.00;100851.69;6318836;22;44754;-87
2022/05/22 11:39:28;;;;;;;;;30.00;27.00;;;;;22.70;100.00;100841.81;6312586;22;44704;-89
2022/05/22 11:42:00;;;;;;;;;21.80;19.60;;;;;22.74;100.00;100845.88;6319490;22;45103;-86
2022/05/22 11:44:55;;;;;;;;;7.80;6.20;;;;;22.83;100.00;100847.50;6316935;22;44545;-89
2022/05/22 11:47:49;;;;;;;;;6.20;4.40;;;;;22.92;100.00;100850.16;6325745;22;44726;-88
2022/05/22 11:50:49;;;;;;;;;3.00;3.00;;;;;22.94;100.00;100826.44;6315367;22;44734;-86
2022/05/22 11:54:03;;;;;;;;;4.40;4.40;;;;;23.00;100.00;100820.31;6163040;23;45191;-89
2022/05/22 11:57:06;;;;;;;;;9.20;4.00;;;;;23.07;100.00;100821.28;6107151;23;44770;-89
2022/05/22 12:00:24;;;;;;;;;4.00;4.00;;;;;23.10;99.82;100829.03;6102297;23;44612;-87